• Join FlightAware (Why Join?)
  • Login
  • US Flag 
08:04PM EST


 

Airport Tracker/Info


-or-


 

Live Flight TrackerFlight Track Log ✈ TYR718 ✈ 12-Aug-2014 ✈ LHBP / BUD - LOWW / VIE

Flight Track Log - Related Links

Times and Time Zones

All times are in EDT time to prevent confusion due to time zone crossing. See the TYR718 flight status page for this flight to view local times or setup timezone preferences in your user account.

Time Position Orientation Groundspeed Altitude Reporting Facility
EDT Latitude Longitude Course Direction KTS MPH feet Rate Location/Type
01:05AM 47.5862 18.6870 291° West  Level Estimated
01:06AM 47.6108 18.5919 291° West  Level Estimated
01:07AM 47.6353 18.4967 291° West  Level Estimated
01:08AM 47.6598 18.4015 291° West  Level Estimated
01:09AM 47.6841 18.3061 291° West  Level Estimated
01:10AM 47.7084 18.2107 291° West  Level Estimated
01:11AM 47.7326 18.1152 291° West  Level Estimated
01:12AM 47.7568 18.0196 291° West  Level Estimated
01:13AM 47.7808 17.9238 291° West  Level Estimated
01:14AM 47.8048 17.8281 290° West  Level Estimated
01:15AM 47.8287 17.7322 290° West  Level Estimated
01:16AM 47.8525 17.6362 290° West  Level Estimated
01:17AM 47.8762 17.5401 290° West  Level Estimated
01:18AM 47.8999 17.4440 290° West  Level Estimated
01:19AM 47.9234 17.3478 290° West  Level Estimated
01:20AM 47.9469 17.2514 290° West  Level Estimated
01:21AM 47.9703 17.1550 290° West  Level Estimated
01:22AM 47.9937 17.0585 290° West  Level Estimated
01:23AM 48.0169 16.9620 290° West  Level Estimated
01:24AM 48.0401 16.8653 290° West  Level Estimated
01:25AM 48.0632 16.7685 290° West  Level Estimated
01:26AM 48.0862 16.6717 290° West  Level Estimated
01:27AM 48.1091 16.5748 290° West  Level Estimated
01:28AM 48.1103 16.5697 289° West  Level Estimated
01:29AM 48.1103 16.5697 North  Level Estimated
01:30AM 48.1103 16.5697 North  Level Estimated
01:31AM 48.1103 16.5697 North  Level Estimated
01:32AM 48.1103 16.5697 North  Level Estimated
01:33AM 48.1103 16.5697 North  Level Estimated
01:34AM 48.1103 16.5697 North  Level Estimated
01:35AM 48.1103 16.5697 North  Level Estimated